Flight Track Log - Related Links

Times and Time Zones

All times are in EDT time to prevent confusion due to time zone crossing. See the UAL865 flight status page for this flight to view local times or setup timezone preferences in your user account.

Time Position Orientation Groundspeed Altitude Reporting Facility
EDT Latitude Longitude Course Direction KTS MPH feet Rate Location/Type
Wed 02:50:43 PM 42.0167 -87.9000 261° West 163 188 2,200  Level Chicago TRACON
Wed 02:51:43 PM 42.0500 -87.9500 312° West 204 235 3,100 1,333 Climbing Chicago TRACON
Wed 02:52:49 PM 42.1000 -88.0167 315° West 258 297 5,000 2,450 Climbing Chicago TRACON
Wed 02:53:00 PM 41.9324 -88.3380 255° West  Level FlightAware Approximate
Wed 02:53:43 PM 42.1500 -88.0833 315° West 279 321 8,000  Level Chicago TRACON
Wed 02:54:00 PM 41.9146 -88.4840 261° West  Level FlightAware Approximate
Wed 02:54:20 PM 42.1447 -88.1489 264° West 279 321 10,000  Level Chicago Center
Wed 02:55:00 PM 41.8974 -88.6313 261° West  Level FlightAware Approximate
Wed 02:55:22 PM 42.1100 -88.2472 245° Southwest 288 331 13,000  Level Chicago Center
Wed 02:56:00 PM 41.8801 -88.7785 261° West  Level FlightAware Approximate
Wed 02:56:24 PM 42.0692 -88.3661 245° Southwest 343 395 14,200  Level Chicago Center
Wed 02:57:26 PM 42.0231 -88.5014 245° Southwest 397 457 16,700 2,419 Climbing Chicago Center
Wed 02:58:28 PM 41.9972 -88.6858 259° West 424 488 19,200 1,839 Climbing Chicago Center
Wed 02:59:30 PM 41.9597 -88.8378 252° West 430 495 20,500 2,371 Climbing Chicago Center
Wed 03:00:32 PM 41.9225 -88.9828 251° West 421 484 24,100 2,371 Climbing Chicago Center
Wed 03:01:34 PM 41.8917 -89.1233 254° West 401 461 25,400 960 Climbing Chicago Center
Wed 03:02:37 PM 41.8628 -89.3150 259° West 440 506 26,100 576 Climbing Chicago Center
Wed 03:03:39 PM 41.8406 -89.4783 260° West 448 516 26,600 726 Climbing Chicago Center
Wed 03:04:41 PM 41.8167 -89.6414 259° West 448 516 27,600 1,016 Climbing Chicago Center
Wed 03:05:43 PM 41.7925 -89.8186 260° West 450 518 28,700 919 Climbing Chicago Center
Wed 03:06:45 PM 41.7697 -89.9808 259° West 447 514 29,500 629 Climbing Chicago Center
Wed 03:07:47 PM 41.7467 -90.1425 259° West 444 511 30,000 242 Climbing Chicago Center
Wed 03:08:49 PM 41.7233 -90.3061 259° West 449 517 30,000  Level Chicago Center
Wed 03:09:51 PM 41.6986 -90.4697 259° West 450 518 30,000  Level Chicago Center
Wed 03:10:53 PM 41.6711 -90.6553 259° West 448 516 30,000  Level Chicago Center
Wed 03:11:55 PM 41.6481 -90.8158 259° West 445 512 30,000  Level Chicago Center
Wed 03:12:57 PM 41.6242 -90.9753 259° West 442 509 30,000  Level Chicago Center
Wed 03:13:59 PM 41.5997 -91.1350 258° West 441 507 30,000  Level Chicago Center
Wed 03:15:02 PM 41.5697 -91.3244 258° West 439 505 30,000  Level Chicago Center
Wed 03:16:04 PM 41.5458 -91.4836 259° West 439 505 30,000  Level Chicago Center
Wed 03:17:06 PM 41.5208 -91.6394 258° West 434 499 30,000  Level Chicago Center
Wed 03:18:08 PM 41.4958 -91.7972 258° West 436 502 30,000  Level Chicago Center
Wed 03:19:10 PM 41.4708 -91.9553 258° West 439 505 30,000  Level Chicago Center
Wed 03:20:12 PM 41.4406 -92.1433 258° West 436 502 30,000  Level Chicago Center
Wed 03:21:14 PM 41.4153 -92.3008 258° West 438 504 30,000  Level Chicago Center
Wed 03:22:16 PM 41.3892 -92.4519 257° West 439 505 30,000  Level Chicago Center
Wed 03:23:18 PM 41.3631 -92.6097 258° West 442 509 30,000  Level Chicago Center
Wed 03:24:20 PM 41.3314 -92.7986 257° West 442 509 30,000  Level Chicago Center
Wed 03:25:22 PM 41.3042 -92.9578 257° West 446 513 30,000  Level Chicago Center
Wed 03:26:25 PM 41.2775 -93.1161 257° West 446 513 30,000  Level Chicago Center
Wed 03:27:27 PM 41.2514 -93.2728 258° West 442 509 30,000  Level Chicago Center
Wed 03:28:29 PM 41.2175 -93.4597 257° West 440 506 30,000  Level Chicago Center
Wed 03:29:31 PM 41.1900 -93.6194 257° West 448 516 30,000  Level Chicago Center
Wed 03:30:33 PM 41.1619 -93.7775 257° West 446 513 30,000  Level Chicago Center
Wed 03:31:35 PM 41.1342 -93.9336 257° West 441 507 30,000  Level Chicago Center
Wed 03:32:37 PM 41.1058 -94.0911 257° West 445 512 30,000  Level Chicago Center
Wed 03:33:39 PM 41.0719 -94.2769 256° West 439 505 30,000  Level Chicago Center
Wed 03:34:41 PM 41.0442 -94.4342 257° West 441 507 30,000  Level Chicago Center
Wed 03:35:59 PM 41.0078 -94.6247 256° West 445 512 30,000  Level Minneapolis Center
Wed 03:37:01 PM 40.9711 -94.8172 256° West 448 516 30,000  Level Minneapolis Center
Wed 03:38:03 PM 40.9411 -94.9761 256° West 447 514 30,000  Level Minneapolis Center
Wed 03:39:05 PM 40.9108 -95.1353 256° West 447 514 30,000  Level Minneapolis Center
Wed 03:40:07 PM 40.8797 -95.2950 256° West 447 514 30,000  Level Minneapolis Center
Wed 03:41:09 PM 40.8494 -95.4542 256° West 445 512 30,000  Level Minneapolis Center
Wed 03:42:11 PM 40.8186 -95.6122 256° West 443 510 30,000  Level Minneapolis Center
Wed 03:43:13 PM 40.7875 -95.7692 255° West 440 506 30,000  Level Minneapolis Center
Wed 03:44:16 PM 40.7575 -95.9244 256° West 438 504 30,000  Level Minneapolis Center
Wed 03:45:18 PM 40.7192 -96.1142 255° West 440 506 30,000  Level Minneapolis Center
Wed 03:46:20 PM 40.6875 -96.2714 255° West 442 509 30,000  Level Minneapolis Center
Wed 03:47:22 PM 40.6558 -96.4283 255° West 442 509 30,000  Level Minneapolis Center
Wed 03:48:24 PM 40.6231 -96.5856 255° West 443 510 30,000  Level Minneapolis Center
Wed 03:49:26 PM 40.5908 -96.7428 255° West 443 510 30,000  Level Minneapolis Center
Wed 03:50:28 PM 40.5586 -96.8997 255° West 444 511 30,000  Level Minneapolis Center
Wed 03:51:30 PM 40.5244 -97.0575 254° West 446 513 30,000  Level Minneapolis Center
Wed 03:52:32 PM 40.4861 -97.2469 255° West 446 513 30,000  Level Minneapolis Center
Wed 03:53:34 PM 40.4533 -97.4022 255° West 446 513 30,000  Level Minneapolis Center
Wed 03:54:36 PM 40.4186 -97.5606 254° West 447 514 30,000  Level Minneapolis Center
Wed 03:55:39 PM 40.3842 -97.7189 254° West 449 517 30,000  Level Minneapolis Center
Wed 03:56:41 PM 40.3500 -97.8775 254° West 450 518 30,000  Level Minneapolis Center
Wed 03:57:43 PM 40.3161 -98.0356 254° West 450 518 30,000  Level Minneapolis Center
Wed 03:58:45 PM 40.2731 -98.2242 253° West 449 517 30,000  Level Minneapolis Center
Wed 03:59:47 PM 40.2389 -98.3822 254° West 449 517 30,000  Level Minneapolis Center
Wed 04:00:49 PM 40.2031 -98.5392 253° West 449 517 30,000  Level Minneapolis Center
Wed 04:01:51 PM 40.1678 -98.6975 254° West 451 519 30,000  Level Minneapolis Center
Wed 04:02:53 PM 40.1322 -98.8561 254° West 452 520 30,000  Level Minneapolis Center
Wed 04:03:55 PM 40.0953 -99.0147 253° West 454 522 30,000  Level Minneapolis Center
Wed 04:04:57 PM 40.0525 -99.2050 254° West 455 524 30,000  Level Minneapolis Center
Wed 04:06:04 PM 40.0153 -99.3625 253° West 453 521 30,000  Level Denver Center
Wed 04:07:06 PM 39.9781 -99.5222 253° West 460 529 30,000  Level Denver Center
Wed 04:08:08 PM 39.9406 -99.6781 253° West 452 520 30,000  Level Denver Center
Wed 04:09:10 PM 39.9033 -99.8369 253° West 454 522 30,000  Level Denver Center
Wed 04:10:12 PM 39.8581 -100.0261 253° West 455 524 30,000  Level Denver Center
Wed 04:11:14 PM 39.8200 -100.1853 253° West 459 528 30,000  Level Denver Center
Wed 04:12:16 PM 39.7836 -100.3364 253° West 454 522 30,000  Level Denver Center
Wed 04:13:18 PM 39.7400 -100.5114 252° West 454 522 30,000  Level Denver Center
Wed 04:14:20 PM 39.7036 -100.6622 253° West 456 525 30,000  Level Denver Center
Wed 04:15:22 PM 39.6597 -100.8386 252° West 458 527 30,000  Level Denver Center
Wed 04:16:24 PM 39.6225 -100.9886 252° West 456 525 30,000  Level Denver Center
Wed 04:17:26 PM 39.5844 -101.1394 252° West 459 528 30,000  Level Denver Center
Wed 04:18:28 PM 39.5394 -101.3158 252° West 461 531 30,000  Level Denver Center
Wed 04:19:30 PM 39.5019 -101.4669 252° West 460 529 30,000  Level Denver Center
Wed 04:20:32 PM 39.4569 -101.6431 252° West 460 529 30,000  Level Denver Center
Wed 04:21:34 PM 39.4186 -101.7928 252° West 459 528 30,000  Level Denver Center
Wed 04:22:36 PM 39.3731 -101.9675 251° West 461 531 30,000  Level Denver Center
Wed 04:23:38 PM 39.3319 -102.1222 251° West 462 532 30,000  Level Denver Center
Wed 04:24:40 PM 39.2931 -102.2733 252° West 465 535 30,000  Level Denver Center
Wed 04:25:42 PM 39.2475 -102.4467 251° West 459 528 30,000  Level Denver Center
Wed 04:26:45 PM 39.2069 -102.5939 250° West 457 526 30,000  Level Denver Center
Wed 04:27:47 PM 39.1617 -102.7633 251° West 458 527 30,000  Level Denver Center
Wed 04:28:49 PM 39.1206 -102.9181 251° West 457 526 30,000  Level Denver Center
Wed 04:29:51 PM 39.0789 -103.0733 251° West 458 527 30,000 339 Level Denver Center
Wed 04:30:53 PM 39.0375 -103.2272 251° West 455 524 30,700 1,258 Climbing Denver Center
Wed 04:31:55 PM 38.9869 -103.4078 250° West 447 514 32,600 1,306 Climbing Denver Center
Wed 04:32:57 PM 38.9467 -103.5536 250° West 436 502 33,400 618 Climbing Denver Center
Wed 04:34:11 PM 38.8947 -103.6911 244° Southwest 430 495 34,000 265 Climbing Denver Center
Wed 04:35:13 PM 38.7942 -103.8456 230° Southwest 440 506 34,000  Level Denver Center
Wed 04:36:16 PM 38.7200 -103.9600 230° Southwest 437 503 34,000  Level Denver Center
Wed 04:37:18 PM 38.6333 -104.0947 231° Southwest 441 507 34,000  Level Denver Center
Wed 04:38:20 PM 38.5503 -104.2242 231° Southwest 443 510 34,000  Level Denver Center
Wed 04:39:22 PM 38.4728 -104.3467 231° Southwest 443 510 34,000  Level Denver Center
Wed 04:40:24 PM 38.3758 -104.4522 220° Southwest 461 531 34,000  Level Denver Center
Wed 04:41:26 PM 38.2625 -104.5494 214° Southwest 461 531 34,000  Level Denver Center
Wed 04:42:28 PM 38.1586 -104.6303 211° Southwest 459 528 34,000  Level Denver Center
Wed 04:43:30 PM 38.0492 -104.7422 219° Southwest 453 521 34,000  Level Denver Center
Wed 04:44:32 PM 37.9844 -104.8692 237° Southwest 448 516 34,000  Level Denver Center
Wed 04:45:34 PM 37.9200 -105.0242 242° Southwest 447 514 34,000  Level Denver Center
Wed 04:46:36 PM 37.8922 -105.1697 256° West 448 516 34,000  Level Denver Center
Wed 04:47:38 PM 37.8653 -105.3375 259° West 439 505 34,000  Level Denver Center
Wed 04:48:40 PM 37.8453 -105.4825 260° West 437 503 34,000  Level Denver Center
Wed 04:49:42 PM 37.8103 -105.6503 255° West 442 509 34,000  Level Denver Center
Wed 04:50:44 PM 37.7747 -105.7956 253° West 451 519 34,000  Level Denver Center
Wed 04:51:47 PM 37.7347 -105.9642 253° West 450 518 34,000  Level Denver Center
Wed 04:52:49 PM 37.7000 -106.1078 253° West 447 514 34,000  Level Denver Center
Wed 04:53:51 PM 37.6647 -106.2553 253° West 445 512 34,000  Level Denver Center
Wed 04:54:53 PM 37.6253 -106.4206 253° West 441 507 34,000  Level Denver Center
Wed 04:55:55 PM 37.5900 -106.5603 252° West 439 505 34,000  Level Denver Center
Wed 04:56:57 PM 37.5497 -106.7256 253° West 441 507 34,000  Level Denver Center
Wed 04:57:59 PM 37.5136 -106.8658 252° West 441 507 34,000  Level Denver Center
Wed 04:59:01 PM 37.4856 -106.9842 253° West 441 507 34,000  Level Denver Center
Wed 05:00:03 PM 37.4375 -107.1717 252° West 441 507 34,000  Level Denver Center
Wed 05:01:05 PM 37.3964 -107.3356 253° West 441 507 34,000  Level Denver Center
Wed 05:02:07 PM 37.3603 -107.4767 252° West 442 509 34,000  Level Denver Center
Wed 05:03:09 PM 37.3181 -107.6425 252° West 446 513 34,000  Level Denver Center
Wed 05:04:11 PM 37.2817 -107.7850 252° West 447 514 34,000  Level Denver Center
Wed 05:05:13 PM 37.2386 -107.9508 252° West 448 516 34,000  Level Denver Center
Wed 05:06:15 PM 37.2008 -108.0925 252° West 447 514 34,000  Level Denver Center
Wed 05:07:17 PM 37.1600 -108.2567 253° West 443 510 34,000  Level Denver Center
Wed 05:08:19 PM 37.1217 -108.3958 251° West 443 510 34,000  Level Denver Center
Wed 05:09:22 PM 37.0861 -108.5347 252° West 441 507 34,000  Level Denver Center
Wed 05:10:24 PM 37.0422 -108.6956 251° West 438 504 34,000  Level Denver Center
Wed 05:11:26 PM 37.0053 -108.8347 252° West 440 506 34,000  Level Denver Center
Wed 05:12:28 PM 36.9619 -108.9975 252° West 444 511 34,000  Level Denver Center
Wed 05:13:30 PM 36.9247 -109.1353 251° West 441 507 34,000  Level Denver Center
Wed 05:14:32 PM 36.8808 -109.2961 251° West 439 505 34,000  Level Denver Center
Wed 05:15:34 PM 36.8422 -109.4347 251° West 442 509 34,000  Level Denver Center
Wed 05:16:36 PM 36.7872 -109.5906 246° West 439 505 34,000  Level Denver Center
Wed 05:17:37 PM 36.7464 -109.7017 245° Southwest 442 509 34,000  Level Denver Center
Wed 05:18:40 PM 36.6825 -109.8775 246° West 438 504 34,000  Level Denver Center
Wed 05:19:42 PM 36.6336 -110.0103 245° Southwest 440 506 34,000  Level Denver Center
Wed 05:20:44 PM 36.5794 -110.1569 245° Southwest 439 505 34,000  Level Denver Center
Wed 05:21:46 PM 36.5292 -110.2989 246° West 444 511 34,000 -290 Level Denver Center
Wed 05:22:48 PM 36.4797 -110.4378 246° West 441 507 33,400 -774 Descending Denver Center
Wed 05:23:50 PM 36.4308 -110.5786 247° West 442 509 32,400 -1,065 Descending Denver Center
Wed 05:24:52 PM 36.3717 -110.7500 247° West 449 517 31,200 -1,065 Descending Denver Center
Wed 05:25:54 PM 36.3225 -110.8994 248° West 460 529 30,200 -581 Descending Denver Center
Wed 05:26:56 PM 36.2769 -111.0458 249° West 459 528 30,000 -97 Descending Denver Center
Wed 05:27:58 PM 36.2303 -111.1925 249° West 457 526 30,000  Level Denver Center
Wed 05:29:01 PM 36.1844 -111.3394 249° West 458 527 30,000  Level Denver Center
Wed 05:30:03 PM 36.1381 -111.4839 248° West 454 522 30,000 -48 Level Denver Center
Wed 05:31:05 PM 36.0789 -111.6583 247° West 456 525 29,900  Descending Denver Center
Wed 05:32:07 PM 36.0303 -111.8067 248° West 462 532 30,000 48 Climbing Denver Center
Wed 05:33:09 PM 35.9828 -111.9525 248° West 460 529 30,000  Level Denver Center
Wed 05:34:11 PM 35.9333 -112.0983 247° West 459 528 30,000  Level Denver Center
Wed 05:35:13 PM 35.8836 -112.2444 247° West 461 531 30,000  Level Denver Center
Wed 05:36:15 PM 35.8336 -112.3897 247° West 461 531 30,000  Level Denver Center
Wed 05:37:46 PM 35.7522 -112.6328 248° West 461 531 30,000  Level Los Angeles Center
Wed 05:38:48 PM 35.7033 -112.7761 247° West 461 531 30,000  Level Los Angeles Center
Wed 05:39:50 PM 35.6553 -112.9139 247° West 461 531 30,000  Level Los Angeles Center
Wed 05:40:52 PM 35.5981 -113.0800 247° West 460 529 30,000  Level Los Angeles Center
Wed 05:41:54 PM 35.5478 -113.2217 246° West 454 522 30,000  Level Los Angeles Center
Wed 05:42:56 PM 35.4961 -113.3731 247° West 464 534 30,000  Level Los Angeles Center
Wed 05:43:59 PM 35.4456 -113.5128 246° West 459 528 30,000  Level Los Angeles Center
Wed 05:45:01 PM 35.3892 -113.6536 244° Southwest 461 531 30,000  Level Los Angeles Center
Wed 05:46:03 PM 35.3214 -113.8206 244° Southwest 462 532 30,000  Level Los Angeles Center
Wed 05:47:05 PM 35.2644 -113.9656 244° Southwest 462 532 30,000  Level Los Angeles Center
Wed 05:48:07 PM 35.2144 -114.1108 247° West 464 534 30,000  Level Los Angeles Center
Wed 05:49:09 PM 35.1644 -114.2556 247° West 462 532 30,000 -194 Level Los Angeles Center
Wed 05:50:11 PM 35.1133 -114.4000 247° West 462 532 29,600 -672 Descending Los Angeles Center
Wed 05:51:14 PM 35.0619 -114.5447 247° West 464 534 28,600 -768 Descending Los Angeles Center
Wed 05:52:16 PM 35.0075 -114.6922 246° West 475 547 28,000 -290 Descending Los Angeles Center
Wed 05:53:18 PM 34.9447 -114.8697 247° West 473 544 28,000  Level Los Angeles Center
Wed 05:54:20 PM 34.8922 -115.0172 247° West 472 543 28,000  Level Los Angeles Center
Wed 05:55:22 PM 34.8383 -115.1642 246° West 474 545 28,000  Level Los Angeles Center
Wed 05:56:24 PM 34.7847 -115.3111 246° West 474 545 28,000  Level Los Angeles Center
Wed 05:57:26 PM 34.7306 -115.4575 246° West 473 544 28,000  Level Los Angeles Center
Wed 05:58:28 PM 34.6692 -115.6250 246° West 473 544 28,000  Level Los Angeles Center
Wed 05:59:30 PM 34.6153 -115.7711 246° West 475 547 28,000  Level Los Angeles Center
Wed 06:00:32 PM 34.5614 -115.9172 246° West 475 547 28,000  Level Los Angeles Center
Wed 06:01:34 PM 34.5061 -116.0619 245° Southwest 474 545 28,000  Level Los Angeles Center
Wed 06:02:37 PM 34.4572 -116.1928 246° West 440 506 28,000  Level Los Angeles Center
Wed 06:03:39 PM 34.4094 -116.3217 246° West 420 483 28,000 -97 Level Los Angeles Center
Wed 06:04:41 PM 34.3603 -116.4508 245° Southwest 423 487 27,800 -774 Descending Los Angeles Center
Wed 06:05:43 PM 34.2983 -116.6128 245° Southwest 438 504 26,400 -1,839 Descending Los Angeles Center
Wed 06:06:45 PM 34.2469 -116.7478 245° Southwest 440 506 24,000 -2,323 Descending Los Angeles Center
Wed 06:07:47 PM 34.1961 -116.8781 245° Southwest 430 495 21,600 -2,274 Descending Los Angeles Center
Wed 06:08:49 PM 34.1469 -117.0042 245° Southwest 418 481 19,300 -1,306 Descending Los Angeles Center
Wed 06:09:51 PM 34.0972 -117.1311 245° Southwest 408 470 18,900 -1,019 Descending Los Angeles Center
Wed 06:10:35 PM 34.0500 -117.2333 241° Southwest 378 435 17,500 -1,904 Descending Southern California TRACON
Wed 06:11:35 PM 34.0333 -117.3500 260° West 338 389 15,600 -1,587 Descending Southern California TRACON
Wed 06:12:36 PM 34.0333 -117.4500 270° West 296 341 14,300 -1,388 Descending Southern California TRACON
Wed 06:13:36 PM 34.0167 -117.5500 259° West 277 319 12,800 -1,500 Descending Southern California TRACON
Wed 06:14:36 PM 34.0167 -117.6333 270° West 323 372 11,300 -1,350 Descending Southern California TRACON
Wed 06:15:36 PM 34.0000 -117.7167 256° West 245 282 10,100 -1,200 Descending Southern California TRACON
Wed 06:16:36 PM 34.0000 -117.8000 270° West 246 283 8,900 -1,250 Descending Southern California TRACON
Wed 06:17:36 PM 33.9833 -117.8833 256° West 246 283 7,600 -1,150 Descending Southern California TRACON
Wed 06:18:36 PM 33.9833 -117.9500 270° West 217 250 6,600 -800 Descending Southern California TRACON
Wed 06:19:36 PM 33.9667 -118.0167 253° West 194 223 6,000 -645 Descending Southern California TRACON
Wed 06:20:37 PM 33.9667 -118.0833 270° West 187 215 5,300 -939 Descending Southern California TRACON
Wed 06:21:31 PM 33.9667 -118.1333 270° West 182 209 4,200 -1,200 Descending Southern California TRACON
Wed 06:22:17 PM 33.9581 -118.1817 258° West 183 211 3,300 -1,174 Descending Los Angeles Center

Login

Don't have an account? Register now (free) for customized features, flight alerts, and more!